Kaiei Maru No.8 — 7JUD — position and weather

sailwx.info

Track history (hours):
 
Tides and Currents Weather Stations Pressure Air Temp Water Temp Dewpoint Dewpoint Depression Visibility Wind Speed Wind Dir Waves Ship Positions

Kaiei Maru No.8

Last reported at 2017-Dec-17 16:59 UTC. Time now 2017-Dec-17 17:21 UTC.
Position N 41°46' E 140°41'.

Length 71 m; draft 5 m.

Type: Cargo ship. MMSI: 431007299.

Date/timePositionNaut miles runAvg speedWind from/ knotsBaromVisibWave heightAir tempDewpointWater temp
2017-Dec-17 16:59N 41°46' E 140°41'0 0.1
2017-Dec-17 16:30N 41°46' E 140°41'0 0.1
2017-Dec-17 16:00N 41°46' E 140°41'0 0.0
2017-Dec-17 15:30N 41°46' E 140°41'0 0.0
2017-Dec-17 15:00N 41°46' E 140°41'0 0.0
2017-Dec-17 14:27N 41°46' E 140°41'0 0.0
2017-Dec-17 14:00N 41°46' E 140°41'0 0.1
2017-Dec-17 13:30N 41°46' E 140°41'0 0.0
2017-Dec-17 13:00N 41°46' E 140°41'0 0.0
2017-Dec-17 12:30N 41°46' E 140°41'0 0.0
2017-Dec-17 12:00N 41°46' E 140°41'0 0.0
2017-Dec-17 11:30N 41°46' E 140°41'0 0.0
2017-Dec-17 11:00N 41°46' E 140°41'0 0.0
2017-Dec-17 10:27N 41°46' E 140°41'0 0.0
2017-Dec-17 10:00N 41°46' E 140°41'3 6.3
2017-Dec-17 09:30N 41°43' E 140°42'5 9.7
2017-Dec-17 09:00N 41°40' E 140°47'5 9.7
2017-Dec-17 08:31N 41°37' E 140°52'5 9.5
2017-Dec-17 08:00N 41°35' E 140°58'510.3
2017-Dec-17 07:30N 41°32' E 141°04'5 9.4
2017-Dec-17 07:00N 41°31' E 141°10'5 8.8
2017-Dec-17 06:30N 41°30' E 141°15'5 9.1
2017-Dec-17 06:00N 41°29' E 141°21'4 8.9
2017-Dec-17 05:29N 41°28' E 141°27'391 9.7
2017-Dec-15 13:15N 35°01' E 140°11'312.6
2017-Dec-15 13:00N 34°59' E 140°08'1711.5
2017-Dec-15 11:32N 34°53' E 139°49'110.6
2017-Dec-15 11:29N 34°53' E 139°48'1310.4
2017-Dec-15 10:11N 35°06' E 139°45'211.2
2017-Dec-15 10:00N 35°08' E 139°45'611.6
2017-Dec-15 09:30N 35°14' E 139°46'611.6
2017-Dec-15 09:00N 35°19' E 139°43'510.7
2017-Dec-15 08:31N 35°24' E 139°43'4 7.9
2017-Dec-15 08:01N 35°25' E 139°48'3 5.4
2017-Dec-15 07:28N 35°22' E 139°50'1 1.5
2017-Dec-15 07:00N 35°22' E 139°50'0 0.5
2017-Dec-15 06:31N 35°22' E 139°51'0 0.0
2017-Dec-15 06:00N 35°22' E 139°51'0 0.1
2017-Dec-15 05:30N 35°22' E 139°51'0 0.1
2017-Dec-15 05:00N 35°22' E 139°51'0 0.0
2017-Dec-15 04:30N 35°22' E 139°51'0 0.0
2017-Dec-15 04:01N 35°22' E 139°51'0 0.0
2017-Dec-15 02:31N 35°22' E 139°51'1 0.6
2017-Dec-15 00:55N 35°23' E 139°50'0 0.0
2017-Dec-15 00:22N 35°23' E 139°50'10 1.6
2017-Dec-14 18:27N 35°31' E 139°45'0 0.0
2017-Dec-14 18:00N 35°31' E 139°45'0 0.0
2017-Dec-14 17:30N 35°31' E 139°45'0 0.0
2017-Dec-14 17:00N 35°31' E 139°45'0 0.0
2017-Dec-14 16:30N 35°31' E 139°45'0 0.0
2017-Dec-14 16:00N 35°31' E 139°45'0 0.0
2017-Dec-14 14:57N 35°31' E 139°45'0 0.0
2017-Dec-14 14:30N 35°31' E 139°45'0 0.0
2017-Dec-14 14:00N 35°31' E 139°45'0 0.0
2017-Dec-14 13:30N 35°31' E 139°45'0 0.0
2017-Dec-14 13:00N 35°31' E 139°45'0 0.0
2017-Dec-14 12:30N 35°31' E 139°45'0 0.0
2017-Dec-14 12:00N 35°31' E 139°45'0 0.0
2017-Dec-14 11:30N 35°31' E 139°45'0 0.0
2017-Dec-14 11:00N 35°31' E 139°45'0 0.0
2017-Dec-14 10:30N 35°31' E 139°45'0 0.0
2017-Dec-14 10:00N 35°31' E 139°45'0 0.0
2017-Dec-14 09:30N 35°31' E 139°45'0 0.0
2017-Dec-14 09:00N 35°31' E 139°45'0 0.0
2017-Dec-14 08:30N 35°31' E 139°45'0 0.0
2017-Dec-14 08:01N 35°31' E 139°45'0 0.0
2017-Dec-14 07:30N 35°31' E 139°45'0 0.0
2017-Dec-14 07:00N 35°31' E 139°45'0 0.0
2017-Dec-14 06:30N 35°31' E 139°45'0 0.0
2017-Dec-14 06:00N 35°31' E 139°45'0 0.0
2017-Dec-14 05:30N 35°31' E 139°45'0 0.0
2017-Dec-14 05:00N 35°31' E 139°45'0 0.0
2017-Dec-14 04:31N 35°31' E 139°45'0 0.0
2017-Dec-14 04:00N 35°31' E 139°45'1 2.2
2017-Dec-14 03:30N 35°30' E 139°46'3 6.0
2017-Dec-14 03:00N 35°29' E 139°49'0 0.0
2017-Dec-14 02:30N 35°29' E 139°49'0 0.0
2017-Dec-14 02:00N 35°29' E 139°49'2 4.4
2017-Dec-14 01:30N 35°27' E 139°48'510.4
2017-Dec-14 01:01N 35°22' E 139°45'4 8.3
2017-Dec-14 00:31N 35°18' E 139°45'4 8.3
2017-Dec-14 00:00N 35°14' E 139°47'4 8.3
2017-Dec-13 23:30N 35°10' E 139°46'4 8.2
2017-Dec-13 23:00N 35°06' E 139°45'4 8.1
2017-Dec-13 22:28N 35°02' E 139°44'7 6.7
2017-Dec-13 21:25N 34°55' E 139°46'  
2017-Dec-10 09:56N 40°53' E 141°26'  
Track history (hours):
 
Tides and Currents Weather Stations Pressure Air Temp Water Temp Dewpoint Dewpoint Depression Visibility Wind Speed Wind Dir Waves Ship Positions

Kaiei Maru No.8

Last reported at 2017-Dec-17 16:59 UTC. Time now 2017-Dec-17 17:21 UTC.
Position N 41°46' E 140°41'.

Length 71 m; draft 5 m.

Type: Cargo ship. MMSI: 431007299.

Date/timePositionNaut miles runAvg speedWind from/ knotsBaromVisibWave heightAir tempDewpointWater temp
2017-Dec-17 16:59N 41°46' E 140°41'0 0.1
2017-Dec-17 16:30N 41°46' E 140°41'0 0.1
2017-Dec-17 16:00N 41°46' E 140°41'0 0.0
2017-Dec-17 15:30N 41°46' E 140°41'0 0.0
2017-Dec-17 15:00N 41°46' E 140°41'0 0.0
2017-Dec-17 14:27N 41°46' E 140°41'0 0.0
2017-Dec-17 14:00N 41°46' E 140°41'0 0.1
2017-Dec-17 13:30N 41°46' E 140°41'0 0.0
2017-Dec-17 13:00N 41°46' E 140°41'0 0.0
2017-Dec-17 12:30N 41°46' E 140°41'0 0.0
2017-Dec-17 12:00N 41°46' E 140°41'0 0.0
2017-Dec-17 11:30N 41°46' E 140°41'0 0.0
2017-Dec-17 11:00N 41°46' E 140°41'0 0.0
2017-Dec-17 10:27N 41°46' E 140°41'0 0.0
2017-Dec-17 10:00N 41°46' E 140°41'3 6.3
2017-Dec-17 09:30N 41°43' E 140°42'5 9.7
2017-Dec-17 09:00N 41°40' E 140°47'5 9.7
2017-Dec-17 08:31N 41°37' E 140°52'5 9.5
2017-Dec-17 08:00N 41°35' E 140°58'510.3
2017-Dec-17 07:30N 41°32' E 141°04'5 9.4
2017-Dec-17 07:00N 41°31' E 141°10'5 8.8
2017-Dec-17 06:30N 41°30' E 141°15'5 9.1
2017-Dec-17 06:00N 41°29' E 141°21'4 8.9
2017-Dec-17 05:29N 41°28' E 141°27'391 9.7
2017-Dec-15 13:15N 35°01' E 140°11'312.6
2017-Dec-15 13:00N 34°59' E 140°08'1711.5
2017-Dec-15 11:32N 34°53' E 139°49'110.6
2017-Dec-15 11:29N 34°53' E 139°48'1310.4
2017-Dec-15 10:11N 35°06' E 139°45'211.2
2017-Dec-15 10:00N 35°08' E 139°45'611.6
2017-Dec-15 09:30N 35°14' E 139°46'611.6
2017-Dec-15 09:00N 35°19' E 139°43'510.7
2017-Dec-15 08:31N 35°24' E 139°43'4 7.9
2017-Dec-15 08:01N 35°25' E 139°48'3 5.4
2017-Dec-15 07:28N 35°22' E 139°50'1 1.5
2017-Dec-15 07:00N 35°22' E 139°50'0 0.5
2017-Dec-15 06:31N 35°22' E 139°51'0 0.0
2017-Dec-15 06:00N 35°22' E 139°51'0 0.1
2017-Dec-15 05:30N 35°22' E 139°51'0 0.1
2017-Dec-15 05:00N 35°22' E 139°51'0 0.0
2017-Dec-15 04:30N 35°22' E 139°51'0 0.0
2017-Dec-15 04:01N 35°22' E 139°51'0 0.0
2017-Dec-15 02:31N 35°22' E 139°51'1 0.6
2017-Dec-15 00:55N 35°23' E 139°50'0 0.0
2017-Dec-15 00:22N 35°23' E 139°50'10 1.6
2017-Dec-14 18:27N 35°31' E 139°45'0 0.0
2017-Dec-14 18:00N 35°31' E 139°45'0 0.0
2017-Dec-14 17:30N 35°31' E 139°45'0 0.0
2017-Dec-14 17:00N 35°31' E 139°45'0 0.0
2017-Dec-14 16:30N 35°31' E 139°45'0 0.0
2017-Dec-14 16:00N 35°31' E 139°45'0 0.0
2017-Dec-14 14:57N 35°31' E 139°45'0 0.0
2017-Dec-14 14:30N 35°31' E 139°45'0 0.0
2017-Dec-14 14:00N 35°31' E 139°45'0 0.0
2017-Dec-14 13:30N 35°31' E 139°45'0 0.0
2017-Dec-14 13:00N 35°31' E 139°45'0 0.0
2017-Dec-14 12:30N 35°31' E 139°45'0 0.0
2017-Dec-14 12:00N 35°31' E 139°45'0 0.0
2017-Dec-14 11:30N 35°31' E 139°45'0 0.0
2017-Dec-14 11:00N 35°31' E 139°45'0 0.0
2017-Dec-14 10:30N 35°31' E 139°45'0 0.0
2017-Dec-14 10:00N 35°31' E 139°45'0 0.0
2017-Dec-14 09:30N 35°31' E 139°45'0 0.0
2017-Dec-14 09:00N 35°31' E 139°45'0 0.0
2017-Dec-14 08:30N 35°31' E 139°45'0 0.0
2017-Dec-14 08:01N 35°31' E 139°45'0 0.0
2017-Dec-14 07:30N 35°31' E 139°45'0 0.0
2017-Dec-14 07:00N 35°31' E 139°45'0 0.0
2017-Dec-14 06:30N 35°31' E 139°45'0 0.0
2017-Dec-14 06:00N 35°31' E 139°45'0 0.0
2017-Dec-14 05:30N 35°31' E 139°45'0 0.0
2017-Dec-14 05:00N 35°31' E 139°45'0 0.0
2017-Dec-14 04:31N 35°31' E 139°45'0 0.0
2017-Dec-14 04:00N 35°31' E 139°45'1 2.2
2017-Dec-14 03:30N 35°30' E 139°46'3 6.0
2017-Dec-14 03:00N 35°29' E 139°49'0 0.0
2017-Dec-14 02:30N 35°29' E 139°49'0 0.0
2017-Dec-14 02:00N 35°29' E 139°49'2 4.4
2017-Dec-14 01:30N 35°27' E 139°48'510.4
2017-Dec-14 01:01N 35°22' E 139°45'4 8.3
2017-Dec-14 00:31N 35°18' E 139°45'4 8.3
2017-Dec-14 00:00N 35°14' E 139°47'4 8.3
2017-Dec-13 23:30N 35°10' E 139°46'4 8.2
2017-Dec-13 23:00N 35°06' E 139°45'4 8.1
2017-Dec-13 22:28N 35°02' E 139°44'7 6.7
2017-Dec-13 21:25N 34°55' E 139°46'  
2017-Dec-10 09:56N 40°53' E 141°26'  

Dump ship's entire track history